Time;durP1;ratioP1;P1;durP2;ratioP2;P2;SDS_P1;SDS_P2;PMS_P1;PMS_P2;Temp;Humidity;BMP_temperature;BMP_pressure;BME280_temperature;BME280_humidity;BME280_pressure;Samples;Min_cycle;Max_cycle;Signal;HPM_P1;HPM_P2
2021/05/03 00:01:22;;;;;;;8.20;6.10;;;14.10;41.00;;;;;;4985583;28;20452;-88
2021/05/03 00:03:49;;;;;;;12.13;9.03;;;14.00;42.00;;;;;;4979367;28;20486;-88
2021/05/03 00:06:16;;;;;;;9.87;6.90;;;13.30;40.20;;;;;;4982689;28;20484;-88
2021/05/03 00:08:43;;;;;;;12.10;9.17;;;12.70;42.40;;;;;;4979826;28;20486;-88
2021/05/03 00:11:10;;;;;;;10.53;7.83;;;12.20;43.20;;;;;;4981704;28;20460;-89
2021/05/03 00:13:36;;;;;;;13.17;9.53;;;12.00;44.40;;;;;;4983145;28;20495;-89
2021/05/03 00:16:03;;;;;;;11.83;8.07;;;12.10;44.50;;;;;;4994025;28;20494;-89
2021/05/03 00:18:30;;;;;;;11.50;7.87;;;12.00;45.40;;;;;;4994788;28;20482;-89
2021/05/03 00:20:56;;;;;;;9.30;7.87;;;12.50;44.80;;;;;;4997345;28;20479;-89
2021/05/03 00:23:24;;;;;;;10.37;8.00;;;12.80;44.80;;;;;;4999449;28;20461;-89
2021/05/03 00:25:50;;;;;;;8.87;6.23;;;13.30;44.50;;;;;;4999637;28;20576;-87
2021/05/03 00:28:17;;;;;;;11.43;7.70;;;13.70;44.30;;;;;;4993186;28;20448;-89
2021/05/03 00:30:43;;;;;;;11.20;8.83;;;14.10;43.10;;;;;;4981696;28;20432;-89
2021/05/03 00:33:09;;;;;;;12.40;9.23;;;14.00;41.70;;;;;;4982377;28;20491;-89
2021/05/03 00:35:36;;;;;;;11.80;8.77;;;13.80;42.80;;;;;;4981066;28;20471;-88
2021/05/03 00:38:03;;;;;;;10.20;7.73;;;13.50;42.90;;;;;;4980465;28;20454;-88
2021/05/03 00:40:30;;;;;;;9.60;7.73;;;13.50;43.30;;;;;;4980068;28;20493;-88
2021/05/03 00:42:56;;;;;;;8.80;6.33;;;13.70;43.40;;;;;;4979606;28;20517;-88
2021/05/03 00:45:23;;;;;;;9.13;5.53;;;14.00;43.20;;;;;;4979448;28;20464;-88
2021/05/03 00:47:50;;;;;;;8.27;5.70;;;14.20;41.50;;;;;;4979485;28;20572;-89
2021/05/03 00:50:19;;;;;;;13.53;7.13;;;14.10;43.20;;;;;;4978736;28;20473;-90
2021/05/03 00:52:46;;;;;;;13.30;9.20;;;14.30;41.00;;;;;;4979401;28;20476;-88
2021/05/03 00:55:14;;;;;;;10.13;7.30;;;13.30;38.80;;;;;;4979140;28;20474;-88
2021/05/03 00:57:42;;;;;;;10.63;8.83;;;12.30;42.00;;;;;;4977977;28;20436;-88
2021/05/03 01:00:11;;;;;;;10.83;7.40;;;12.30;43.50;;;;;;4978242;28;20988;-88
2021/05/03 01:02:38;;;;;;;10.80;7.30;;;12.70;44.00;;;;;;4977762;28;20544;-88
2021/05/03 01:05:06;;;;;;;10.13;7.50;;;12.80;44.30;;;;;;4977749;28;21023;-88
2021/05/03 01:07:32;;;;;;;12.57;8.83;;;12.70;42.90;;;;;;4978390;28;20517;-89
2021/05/03 01:09:59;;;;;;;9.70;6.93;;;12.60;43.00;;;;;;4978782;28;20806;-88
2021/05/03 01:12:26;;;;;;;10.60;7.93;;;12.60;42.80;;;;;;4977898;28;20506;-88
2021/05/03 01:14:53;;;;;;;13.10;7.40;;;12.10;43.30;;;;;;4978699;28;20486;-88
2021/05/03 01:17:30;;;;;;;10.20;7.97;;;12.20;44.10;;;;;;4981750;28;20517;-89
2021/05/03 01:19:56;;;;;;;10.30;7.47;;;12.30;44.60;;;;;;4997385;28;20443;-89
2021/05/03 01:22:24;;;;;;;13.77;7.37;;;12.60;44.30;;;;;;4995234;28;20487;-88
2021/05/03 01:24:50;;;;;;;8.43;6.10;;;12.80;43.80;;;;;;4997185;28;20437;-89
2021/05/03 01:27:17;;;;;;;8.60;6.07;;;13.10;44.30;;;;;;4997704;28;20506;-88
2021/05/03 01:29:43;;;;;;;9.10;6.33;;;13.50;44.40;;;;;;4996964;28;20423;-88
2021/05/03 01:32:10;;;;;;;8.60;6.40;;;13.70;43.70;;;;;;4981967;28;20982;-88
2021/05/03 01:34:39;;;;;;;7.67;5.50;;;13.90;43.40;;;;;;4978922;28;20580;-89
2021/05/03 01:37:06;;;;;;;8.77;5.43;;;14.10;43.20;;;;;;4978390;28;20505;-89
2021/05/03 01:39:33;;;;;;;10.20;6.83;;;14.20;43.20;;;;;;4978272;28;20439;-89
2021/05/03 01:42:00;;;;;;;9.93;7.33;;;14.10;42.60;;;;;;4978201;28;20463;-89
2021/05/03 01:44:29;;;;;;;15.00;7.23;;;14.10;42.40;;;;;;4977901;28;20456;-89
2021/05/03 01:46:55;;;;;;;10.77;8.20;;;14.20;42.40;;;;;;4977550;28;20819;-89
2021/05/03 01:49:22;;;;;;;13.00;9.50;;;13.90;41.30;;;;;;4977199;28;20460;-89
2021/05/03 01:51:50;;;;;;;10.80;7.23;;;13.40;41.60;;;;;;4977520;28;20475;-89
2021/05/03 01:54:17;;;;;;;7.70;6.00;;;13.20;42.60;;;;;;4978578;28;20456;-89
2021/05/03 01:56:44;;;;;;;16.17;9.47;;;13.50;43.30;;;;;;4978251;28;20479;-90
2021/05/03 01:59:11;;;;;;;7.80;6.67;;;13.60;38.70;;;;;;4978203;28;20866;-90
2021/05/03 02:01:38;;;;;;;12.20;9.93;;;12.50;43.00;;;;;;4982469;28;20454;-89
2021/05/03 02:04:06;;;;;;;9.10;7.07;;;12.00;42.00;;;;;;4978662;28;20463;-89
2021/05/03 02:06:33;;;;;;;9.00;6.00;;;11.90;43.00;;;;;;4978112;28;20574;-89
2021/05/03 02:09:05;;;;;;;8.20;6.20;;;12.20;44.60;;;;;;4978513;28;20481;-90
2021/05/03 02:11:31;;;;;;;7.90;5.93;;;12.70;43.50;;;;;;4977612;28;20434;-90
2021/05/03 02:13:59;;;;;;;10.10;6.50;;;13.10;44.50;;;;;;4978249;28;20459;-89
2021/05/03 02:16:25;;;;;;;7.50;6.40;;;13.20;44.00;;;;;;4978115;28;20489;-90
2021/05/03 02:18:52;;;;;;;9.30;7.60;;;13.50;43.30;;;;;;4979542;28;20478;-90
2021/05/03 02:21:18;;;;;;;7.00;6.23;;;13.60;42.90;;;;;;4977380;28;20454;-90
2021/05/03 02:23:45;;;;;;;16.03;10.17;;;13.60;42.00;;;;;;4978453;28;20520;-90
2021/05/03 02:26:11;;;;;;;10.83;7.27;;;13.30;40.10;;;;;;4978419;28;21022;-90
2021/05/03 02:28:38;;;;;;;10.87;8.67;;;12.90;41.10;;;;;;4978688;28;20483;-90
2021/05/03 02:31:05;;;;;;;13.13;7.47;;;12.40;39.40;;;;;;4978830;28;20433;-89
2021/05/03 02:33:32;;;;;;;14.47;10.50;;;11.90;42.50;;;;;;4976230;28;20464;-89
2021/05/03 02:35:59;;;;;;;11.90;8.50;;;11.70;41.50;;;;;;4981841;28;20463;-89
2021/05/03 02:38:28;;;;;;;12.23;8.80;;;11.70;44.40;;;;;;4999309;28;20449;-90
2021/05/03 02:40:55;;;;;;;12.50;8.50;;;11.90;44.30;;;;;;4999323;28;20483;-88
2021/05/03 02:43:21;;;;;;;9.83;7.47;;;12.30;44.60;;;;;;4998628;28;20464;-89
2021/05/03 02:45:48;;;;;;;13.77;10.60;;;12.40;43.70;;;;;;4999005;28;20431;-89
2021/05/03 02:48:16;;;;;;;16.83;10.63;;;12.40;40.00;;;;;;5000042;28;20568;-89
2021/05/03 02:50:42;;;;;;;10.07;7.20;;;12.10;42.20;;;;;;4999106;28;20447;-89
2021/05/03 02:53:09;;;;;;;9.87;6.83;;;12.30;43.90;;;;;;4999422;28;20464;-88
2021/05/03 02:55:36;;;;;;;9.90;7.50;;;12.30;41.40;;;;;;5000786;28;20446;-88
2021/05/03 02:58:02;;;;;;;13.57;8.50;;;12.20;43.10;;;;;;5000404;28;20431;-88
2021/05/03 03:00:31;;;;;;;8.13;6.47;;;11.90;44.10;;;;;;5000806;28;20465;-88
2021/05/03 03:02:57;;;;;;;9.70;7.90;;;12.50;45.80;;;;;;5001364;28;20506;-88
2021/05/03 03:05:25;;;;;;;9.13;6.97;;;12.70;44.40;;;;;;5000782;28;20467;-88
2021/05/03 03:07:52;;;;;;;11.87;7.67;;;12.70;42.40;;;;;;5000384;28;20481;-89
2021/05/03 03:10:19;;;;;;;9.83;7.50;;;12.30;41.40;;;;;;5001081;28;20450;-89
2021/05/03 03:12:47;;;;;;;15.30;7.70;;;12.40;44.40;;;;;;5000352;28;20529;-89
2021/05/03 03:15:16;;;;;;;18.07;9.87;;;12.60;44.00;;;;;;5000852;28;20459;-89
2021/05/03 03:17:46;;;;;;;13.13;9.50;;;12.70;41.80;;;;;;5000715;28;20437;-89
2021/05/03 03:20:14;;;;;;;13.03;10.30;;;12.30;39.40;;;;;;5001008;28;20464;-89
2021/05/03 03:22:41;;;;;;;11.70;9.53;;;11.60;40.00;;;;;;5000785;28;20504;-89
2021/05/03 03:25:09;;;;;;;9.90;8.20;;;10.80;43.30;;;;;;4995387;28;20447;-89
2021/05/03 03:27:36;;;;;;;9.10;7.47;;;10.80;44.60;;;;;;4983479;28;20476;-90
2021/05/03 03:30:03;;;;;;;11.03;9.00;;;11.40;45.20;;;;;;4983121;28;20483;-90
2021/05/03 03:32:29;;;;;;;13.00;10.33;;;11.40;42.10;;;;;;4983453;28;20467;-89
2021/05/03 03:34:56;;;;;;;16.37;10.30;;;11.30;43.00;;;;;;4982129;28;20883;-89
2021/05/03 03:37:22;;;;;;;17.20;10.60;;;11.20;43.00;;;;;;4982736;28;20950;-89
2021/05/03 03:39:49;;;;;;;13.37;8.90;;;11.30;41.40;;;;;;4982803;28;20522;-89
2021/05/03 03:42:16;;;;;;;16.40;11.40;;;11.10;42.60;;;;;;4981287;28;20524;-89
2021/05/03 03:44:42;;;;;;;13.20;9.30;;;10.60;42.50;;;;;;4990977;28;20463;-89
2021/05/03 03:47:09;;;;;;;11.80;8.97;;;10.50;43.90;;;;;;4997751;28;20479;-90
2021/05/03 03:49:35;;;;;;;16.80;11.77;;;10.60;44.40;;;;;;5001060;28;20468;-89
2021/05/03 03:52:01;;;;;;;13.77;9.37;;;10.60;44.70;;;;;;4999616;28;20460;-89
2021/05/03 03:54:28;;;;;;;14.80;11.07;;;10.70;44.00;;;;;;4999885;28;20440;-89
2021/05/03 03:56:55;;;;;;;17.00;10.97;;;10.20;43.00;;;;;;4999999;28;20443;-89
2021/05/03 03:59:23;;;;;;;12.37;7.40;;;9.90;46.20;;;;;;4998847;28;20451;-89
2021/05/03 04:01:50;;;;;;;17.00;11.27;;;10.50;45.30;;;;;;4999580;28;20535;-89
2021/05/03 04:04:20;;;;;;;9.43;7.83;;;10.80;44.20;;;;;;4998568;28;20459;-89
2021/05/03 04:06:51;;;;;;;21.57;11.00;;;11.00;46.00;;;;;;4998494;28;20456;-89
2021/05/03 04:09:22;;;;;;;11.60;9.27;;;11.70;45.10;;;;;;4999474;28;20426;-89
2021/05/03 04:12:07;;;;;;;14.80;9.53;;;11.90;43.80;;;;;;4999151;28;20480;-88
2021/05/03 04:25:40;;;;;;;14.63;9.27;;;10.60;45.50;;;;;;4982034;28;20412;-90
2021/05/03 04:28:08;;;;;;;10.87;8.70;;;10.50;44.20;;;;;;4990737;28;20480;-89
2021/05/03 04:30:36;;;;;;;18.93;13.20;;;10.10;44.50;;;;;;4999472;28;20459;-89
2021/05/03 04:33:03;;;;;;;18.87;10.40;;;10.10;43.80;;;;;;4983813;28;20989;-89
2021/05/03 04:35:30;;;;;;;12.83;8.60;;;10.10;44.20;;;;;;4984015;28;20432;-90
2021/05/03 04:37:56;;;;;;;13.10;10.00;;;10.20;46.00;;;;;;4981148;28;20526;-90
2021/05/03 04:40:23;;;;;;;15.57;11.07;;;10.70;45.30;;;;;;4981158;28;20432;-89
2021/05/03 04:42:50;;;;;;;11.47;9.60;;;11.00;44.90;;;;;;4980399;28;20509;-89
2021/05/03 04:45:16;;;;;;;19.80;14.00;;;11.10;44.50;;;;;;4979342;28;20515;-87
2021/05/03 04:47:44;;;;;;;14.90;11.73;;;11.40;41.70;;;;;;4979699;28;20498;-87
2021/05/03 04:50:11;;;;;;;19.67;12.80;;;11.30;43.80;;;;;;4979809;28;20452;-87
2021/05/03 04:52:39;;;;;;;12.60;8.60;;;10.70;42.60;;;;;;4979335;28;20479;-87
2021/05/03 04:55:07;;;;;;;13.90;10.30;;;11.40;44.00;;;;;;4979136;28;20442;-87
2021/05/03 04:57:33;;;;;;;22.23;11.80;;;11.20;42.30;;;;;;4978396;28;20491;-87
2021/05/03 05:00:00;;;;;;;9.40;7.10;;;11.50;43.40;;;;;;4979364;28;20437;-87
2021/05/03 05:02:27;;;;;;;12.10;8.90;;;11.70;44.90;;;;;;4981265;28;20820;-89
2021/05/03 05:04:54;;;;;;;12.63;9.63;;;11.70;41.60;;;;;;4978592;28;20438;-87
2021/05/03 05:07:22;;;;;;;16.93;10.83;;;11.80;42.70;;;;;;4980137;28;20479;-87
2021/05/03 05:09:48;;;;;;;11.53;8.67;;;11.20;41.50;;;;;;4978550;28;20444;-86
2021/05/03 05:12:15;;;;;;;13.23;10.53;;;11.50;44.00;;;;;;4985706;28;20479;-86
2021/05/03 05:14:41;;;;;;;12.77;9.87;;;11.60;40.80;;;;;;4977736;28;20914;-86
2021/05/03 05:17:08;;;;;;;13.93;9.77;;;10.70;42.70;;;;;;4987306;28;20438;-84
2021/05/03 05:19:34;;;;;;;10.60;8.40;;;10.30;44.90;;;;;;4986269;28;20431;-86
2021/05/03 05:22:02;;;;;;;15.57;10.80;;;10.10;46.20;;;;;;4981877;28;20503;-85
2021/05/03 05:24:29;;;;;;;17.43;11.37;;;10.10;44.80;;;;;;4985196;28;20463;-86
2021/05/03 05:26:55;;;;;;;15.43;12.03;;;9.90;46.10;;;;;;4986295;28;20486;-86
2021/05/03 05:29:24;;;;;;;16.37;12.30;;;10.10;45.60;;;;;;4982683;28;20471;-86
2021/05/03 05:31:51;;;;;;;10.87;8.87;;;10.70;45.30;;;;;;4979733;28;20508;-86
2021/05/03 05:34:18;;;;;;;12.00;9.60;;;12.10;43.50;;;;;;4977568;28;20457;-86
2021/05/03 05:36:44;;;;;;;11.60;9.40;;;13.30;40.50;;;;;;4977298;28;20484;-85
2021/05/03 05:39:11;;;;;;;17.60;10.30;;;14.60;39.60;;;;;;4978643;28;20436;-86
2021/05/03 05:41:39;;;;;;;16.03;10.20;;;15.60;37.10;;;;;;4977056;28;20456;-86
2021/05/03 05:44:07;;;;;;;11.43;9.20;;;14.90;35.70;;;;;;4977445;28;20511;-86
2021/05/03 05:46:33;;;;;;;14.33;9.23;;;15.30;35.90;;;;;;4977740;28;20547;-85
2021/05/03 05:49:00;;;;;;;11.43;9.40;;;14.50;37.10;;;;;;4977601;28;20877;-87
2021/05/03 05:51:26;;;;;;;19.93;9.03;;;14.30;39.40;;;;;;4977019;28;20949;-86
2021/05/03 05:53:53;;;;;;;14.60;9.60;;;14.60;40.60;;;;;;4977186;28;20447;-87
2021/05/03 05:56:20;;;;;;;14.63;9.27;;;15.60;37.80;;;;;;4977661;28;20436;-86
2021/05/03 05:58:46;;;;;;;9.67;7.80;;;16.20;34.70;;;;;;4978511;28;20882;-87
2021/05/03 06:01:13;;;;;;;11.30;9.40;;;16.90;35.00;;;;;;4977132;28;20480;-87
2021/05/03 06:03:40;;;;;;;11.57;8.93;;;17.80;33.00;;;;;;4977219;28;20491;-86
2021/05/03 06:06:06;;;;;;;10.70;8.50;;;17.90;32.90;;;;;;4977719;28;20579;-87
2021/05/03 06:08:34;;;;;;;12.20;8.00;;;17.80;32.90;;;;;;4978069;28;20527;-87
2021/05/03 06:11:01;;;;;;;10.67;8.70;;;17.70;33.00;;;;;;4978342;28;20483;-86
2021/05/03 06:13:29;;;;;;;12.83;9.07;;;17.40;31.60;;;;;;4981408;28;20455;-86
2021/05/03 06:15:56;;;;;;;12.20;8.67;;;17.60;32.70;;;;;;4981879;28;20435;-87
2021/05/03 06:18:22;;;;;;;10.70;8.77;;;18.30;33.00;;;;;;4981565;28;20439;-87
2021/05/03 06:20:49;;;;;;;11.73;8.40;;;18.70;30.80;;;;;;4982147;28;20435;-86
2021/05/03 06:23:15;;;;;;;10.90;8.87;;;18.90;32.20;;;;;;4981776;28;20478;-87
2021/05/03 06:25:43;;;;;;;17.40;7.83;;;19.90;30.80;;;;;;4982038;28;20456;-86
2021/05/03 06:28:09;;;;;;;9.93;7.80;;;20.60;30.30;;;;;;4982058;28;20477;-86
2021/05/03 06:30:38;;;;;;;10.30;8.27;;;21.10;28.80;;;;;;4982133;28;20447;-86
2021/05/03 06:33:04;;;;;;;10.53;8.93;;;21.70;28.20;;;;;;4981697;28;20455;-86
2021/05/03 06:35:32;;;;;;;11.17;8.43;;;22.00;27.90;;;;;;4980752;28;20444;-86
2021/05/03 06:37:59;;;;;;;9.33;7.80;;;22.60;27.80;;;;;;4981439;28;20486;-86
2021/05/03 06:40:25;;;;;;;10.53;8.40;;;22.60;25.80;;;;;;4981212;28;20455;-86
2021/05/03 06:42:52;;;;;;;11.00;8.00;;;22.10;26.40;;;;;;4979367;28;20478;-87
2021/05/03 06:45:19;;;;;;;10.50;8.13;;;21.40;27.70;;;;;;4979494;28;20490;-85
2021/05/03 06:47:48;;;;;;;13.57;8.70;;;21.40;27.30;;;;;;4979280;28;20482;-86
2021/05/03 06:50:15;;;;;;;10.27;8.40;;;21.80;28.00;;;;;;4978780;28;20917;-86
2021/05/03 06:52:44;;;;;;;11.53;8.40;;;22.10;26.40;;;;;;4979297;28;20464;-86
2021/05/03 06:55:12;;;;;;;16.53;8.90;;;22.40;26.10;;;;;;4979115;28;20439;-86
2021/05/03 06:57:38;;;;;;;10.00;8.60;;;22.60;26.50;;;;;;4978725;28;20462;-87
2021/05/03 07:00:06;;;;;;;12.00;8.70;;;22.90;26.10;;;;;;4978469;28;20522;-87
2021/05/03 07:02:33;;;;;;;9.47;7.83;;;23.20;26.20;;;;;;4978596;28;20507;-86
2021/05/03 07:05:00;;;;;;;13.20;8.80;;;23.30;25.10;;;;;;4978088;28;20472;-86
2021/05/03 07:07:30;;;;;;;8.50;7.13;;;24.10;25.20;;;;;;4979250;28;20487;-86
2021/05/03 07:09:57;;;;;;;10.83;8.10;;;24.20;26.00;;;;;;4978451;28;20436;-87
2021/05/03 07:12:25;;;;;;;9.93;7.97;;;23.90;24.60;;;;;;4978937;28;20784;-86
2021/05/03 07:14:52;;;;;;;10.20;7.40;;;24.00;24.60;;;;;;4979222;28;20792;-87
2021/05/03 07:17:28;;;;;;;11.13;7.40;;;24.20;24.00;;;;;;4978256;28;20531;-87
2021/05/03 07:20:05;;;;;;;9.00;6.30;;;24.40;24.50;;;;;;4979031;28;20451;-86
2021/05/03 07:22:33;;;;;;;10.70;7.63;;;24.10;25.60;;;;;;4978603;28;20463;-86
2021/05/03 07:25:01;;;;;;;10.63;6.90;;;24.50;23.60;;;;;;4979011;28;20452;-86
2021/05/03 07:27:28;;;;;;;10.40;7.60;;;23.80;24.50;;;;;;4977468;28;20575;-87
2021/05/03 07:29:54;;;;;;;10.67;7.43;;;24.10;23.30;;;;;;4977686;28;20447;-86
2021/05/03 07:32:21;;;;;;;13.73;7.80;;;24.30;23.50;;;;;;4977618;28;20520;-86
2021/05/03 07:34:48;;;;;;;10.97;7.60;;;24.80;23.20;;;;;;4977531;28;20463;-87
2021/05/03 07:37:14;;;;;;;9.83;7.93;;;24.60;23.00;;;;;;4977946;28;20471;-86
2021/05/03 07:39:43;;;;;;;12.17;8.67;;;23.10;22.80;;;;;;4978229;28;20972;-86
2021/05/03 07:42:10;;;;;;;10.30;7.10;;;20.70;25.70;;;;;;4954636;28;677987;-86
2021/05/03 07:44:37;;;;;;;9.07;7.77;;;20.10;28.00;;;;;;4978143;28;20466;-86
2021/05/03 07:47:04;;;;;;;9.20;7.40;;;20.10;27.50;;;;;;4979392;28;20903;-86
2021/05/03 07:49:31;;;;;;;14.93;7.63;;;21.30;26.10;;;;;;4978721;28;20451;-86
2021/05/03 07:51:57;;;;;;;11.13;7.33;;;22.20;25.60;;;;;;4978385;28;20467;-86
2021/05/03 07:54:24;;;;;;;14.03;7.17;;;23.10;24.50;;;;;;4978806;28;20912;-86
2021/05/03 07:56:51;;;;;;;7.07;6.23;;;23.70;23.60;;;;;;4978999;28;20455;-88
2021/05/03 07:59:18;;;;;;;9.73;7.57;;;24.70;23.80;;;;;;4979298;28;20562;-87
2021/05/03 08:01:44;;;;;;;13.00;7.27;;;25.20;22.80;;;;;;4979570;28;20444;-87
2021/05/03 08:04:10;;;;;;;9.00;6.60;;;25.40;21.70;;;;;;4978486;28;20475;-87
2021/05/03 08:06:37;;;;;;;10.93;6.87;;;25.50;21.80;;;;;;4977961;28;20506;-86
2021/05/03 08:09:05;;;;;;;7.67;5.80;;;25.40;20.50;;;;;;4978076;28;20538;-86
2021/05/03 08:11:33;;;;;;;7.47;5.77;;;24.70;21.30;;;;;;4977979;28;20942;-87
2021/05/03 08:14:00;;;;;;;7.93;6.03;;;23.80;22.90;;;;;;4978089;28;20447;-86
2021/05/03 08:16:29;;;;;;;8.80;6.00;;;23.60;22.40;;;;;;4977805;28;20941;-86
2021/05/03 08:18:55;;;;;;;9.33;7.03;;;23.80;21.90;;;;;;4978073;28;20491;-86
2021/05/03 08:21:22;;;;;;;8.30;6.73;;;23.80;21.30;;;;;;4978243;28;20466;-86
2021/05/03 08:23:48;;;;;;;9.53;6.73;;;23.20;22.20;;;;;;4978112;28;20506;-86
2021/05/03 08:26:15;;;;;;;7.60;5.47;;;23.10;21.50;;;;;;4979533;28;20941;-86
2021/05/03 08:28:46;;;;;;;8.97;6.40;;;23.80;22.40;;;;;;4977879;28;20507;-86
2021/05/03 08:31:14;;;;;;;7.87;5.70;;;23.50;21.10;;;;;;4995015;28;20496;-85
2021/05/03 08:33:40;;;;;;;16.03;9.30;;;23.50;21.10;;;;;;4994436;28;20504;-86
2021/05/03 08:36:07;;;;;;;10.30;6.90;;;23.90;20.70;;;;;;4982042;28;20958;-87
2021/05/03 08:38:34;;;;;;;6.20;5.20;;;24.00;20.80;;;;;;4978049;28;20456;-86
2021/05/03 08:41:03;;;;;;;7.80;6.17;;;23.30;21.40;;;;;;4977718;28;20519;-86
2021/05/03 08:43:31;;;;;;;7.47;5.50;;;22.70;20.80;;;;;;4978099;28;20864;-86
2021/05/03 08:45:57;;;;;;;8.17;6.03;;;22.70;22.40;;;;;;4976614;28;20455;-86
2021/05/03 08:48:33;;;;;;;16.63;7.10;;;22.50;22.10;;;;;;4978006;28;20484;-86
2021/05/03 08:51:09;;;;;;;11.93;6.03;;;21.40;22.60;;;;;;4977343;28;20424;-86
2021/05/03 08:53:41;;;;;;;7.53;5.20;;;20.90;23.80;;;;;;4977185;28;20518;-86
2021/05/03 08:56:07;;;;;;;7.20;5.80;;;20.90;24.70;;;;;;4976907;28;20527;-87
2021/05/03 08:58:37;;;;;;;5.93;5.20;;;21.10;23.00;;;;;;4985560;28;20428;-87
2021/05/03 09:01:03;;;;;;;5.27;4.97;;;21.40;23.10;;;;;;4997503;28;20540;-86
2021/05/03 09:03:31;;;;;;;6.60;5.13;;;21.50;22.20;;;;;;4997335;28;20492;-87
2021/05/03 09:06:03;;;;;;;7.53;5.93;;;20.80;21.90;;;;;;4997722;28;20436;-87
2021/05/03 09:08:30;;;;;;;14.47;5.70;;;19.50;23.30;;;;;;4998646;28;20460;-86
2021/05/03 09:10:57;;;;;;;6.73;5.50;;;19.90;23.50;;;;;;4997606;28;20444;-86
2021/05/03 09:13:29;;;;;;;8.40;5.50;;;19.50;23.50;;;;;;4984338;28;20470;-86
2021/05/03 09:16:16;;;;;;;6.97;5.50;;;19.70;24.30;;;;;;4977669;28;20610;-87
2021/05/03 09:18:43;;;;;;;8.50;5.47;;;19.10;25.30;;;;;;4978031;28;20448;-86
2021/05/03 09:21:20;;;;;;;12.10;5.30;;;18.90;26.60;;;;;;4978220;28;20494;-86
2021/05/03 09:24:03;;;;;;;11.10;4.40;;;19.40;24.40;;;;;;4977185;28;20484;-87
2021/05/03 09:26:35;;;;;;;6.20;4.57;;;18.70;24.10;;;;;;4977123;28;20458;-87
2021/05/03 09:29:23;;;;;;;7.63;4.27;;;17.80;25.70;;;;;;4977160;28;20413;-86
2021/05/03 09:32:00;;;;;;;7.57;5.33;;;17.00;27.20;;;;;;4976983;28;20522;-86
2021/05/03 09:34:29;;;;;;;6.60;5.20;;;17.10;27.90;;;;;;4976499;28;20471;-86
2021/05/03 09:37:19;;;;;;;5.67;4.53;;;17.20;26.30;;;;;;4977180;28;20475;-87
2021/05/03 09:39:54;;;;;;;6.30;5.30;;;17.10;26.80;;;;;;4984102;28;20440;-86
2021/05/03 09:42:22;;;;;;;31.73;21.00;;;17.40;27.60;;;;;;4977079;28;20537;-87
2021/05/03 09:45:06;;;;;;;9.17;6.63;;;18.10;27.30;;;;;;4976328;28;20801;-87
2021/05/03 09:47:33;;;;;;;6.97;5.37;;;18.60;25.30;;;;;;4976526;28;20510;-87
2021/05/03 09:50:03;;;;;;;9.20;5.20;;;18.70;25.50;;;;;;4976734;28;20519;-87
2021/05/03 09:52:30;;;;;;;7.40;5.33;;;18.80;25.40;;;;;;4976279;28;20475;-87
2021/05/03 09:54:56;;;;;;;6.40;4.50;;;18.20;25.70;;;;;;4979068;28;20472;-87
2021/05/03 09:57:26;;;;;;;6.50;5.10;;;17.60;26.50;;;;;;4980833;28;20990;-86
2021/05/03 09:59:54;;;;;;;8.80;4.60;;;17.40;24.80;;;;;;4976227;28;20460;-87
2021/05/03 10:02:23;;;;;;;6.10;5.27;;;17.70;24.20;;;;;;4994148;28;20475;-86
2021/05/03 10:04:56;;;;;;;15.60;5.63;;;17.80;25.70;;;;;;4995681;28;20508;-86
2021/05/03 10:07:25;;;;;;;6.37;4.70;;;17.70;25.50;;;;;;4996246;28;20944;-86
2021/05/03 10:09:58;;;;;;;7.23;5.67;;;17.50;25.80;;;;;;4997415;28;20428;-86
2021/05/03 10:12:26;;;;;;;6.07;4.60;;;17.00;25.50;;;;;;4997615;28;20523;-86
2021/05/03 10:14:54;;;;;;;7.33;4.50;;;16.90;27.10;;;;;;4984953;28;20500;-86
2021/05/03 10:17:21;;;;;;;7.43;4.10;;;16.80;26.40;;;;;;4978250;28;20448;-87
2021/05/03 10:19:50;;;;;;;5.47;4.10;;;17.00;28.50;;;;;;4977942;28;20557;-87
2021/05/03 10:22:18;;;;;;;5.93;4.00;;;17.40;25.20;;;;;;4995597;28;20476;-86
2021/05/03 10:24:50;;;;;;;7.50;4.30;;;17.80;25.90;;;;;;4986228;28;20479;-87
2021/05/03 10:27:18;;;;;;;6.10;4.30;;;18.40;26.30;;;;;;4976803;28;20511;-87
2021/05/03 10:29:45;;;;;;;3.80;3.53;;;18.00;25.50;;;;;;4977562;28;20471;-87
2021/05/03 10:32:13;;;;;;;22.60;6.40;;;17.90;25.70;;;;;;4977550;28;20541;-87
2021/05/03 10:34:42;;;;;;;18.23;6.20;;;19.00;23.30;;;;;;4978486;28;20463;-87
2021/05/03 10:37:49;;;;;;;8.07;4.07;;;19.10;22.40;;;;;;4977589;28;20436;-87
2021/05/03 10:40:44;;;;;;;16.20;5.10;;;19.30;21.60;;;;;;4976764;28;20444;-87
2021/05/03 10:43:18;;;;;;;6.70;3.87;;;19.30;22.90;;;;;;4942839;28;20539;-87
2021/05/03 10:48:51;;;;;;;9.97;3.70;;;19.60;22.00;;;;;;4982323;28;20475;-87
2021/05/03 10:51:38;;;;;;;6.33;4.00;;;19.60;22.00;;;;;;4982795;28;20447;-87
2021/05/03 10:54:31;;;;;;;4.37;3.57;;;19.90;23.10;;;;;;4976455;28;20478;-87
2021/05/03 10:57:00;;;;;;;5.70;3.50;;;19.90;22.20;;;;;;4982639;28;20518;-87
2021/05/03 10:59:41;;;;;;;6.13;3.93;;;20.00;21.80;;;;;;4982766;28;20447;-87
2021/05/03 11:02:09;;;;;;;4.20;3.27;;;20.10;21.70;;;;;;5001496;28;20464;-87
2021/05/03 11:04:38;;;;;;;4.97;4.20;;;19.30;24.30;;;;;;4983462;28;20858;-87
2021/05/03 11:07:11;;;;;;;15.20;4.10;;;19.80;22.10;;;;;;4979311;28;20566;-87
2021/05/03 11:09:43;;;;;;;6.90;4.00;;;20.20;20.80;;;;;;4979664;28;20447;-89
2021/05/03 11:12:32;;;;;;;4.33;3.50;;;20.10;23.80;;;;;;4981308;28;20477;-89
2021/05/03 11:15:15;;;;;;;4.67;3.50;;;20.40;20.60;;;;;;4978869;28;20442;-89
2021/05/03 11:18:14;;;;;;;11.00;4.20;;;20.30;20.30;;;;;;4980566;28;20430;-89
2021/05/03 11:21:13;;;;;;;4.40;3.03;;;20.20;21.30;;;;;;4980645;28;20544;-89
2021/05/03 11:23:40;;;;;;;9.83;3.23;;;20.00;19.90;;;;;;4979955;28;20477;-89
2021/05/03 11:26:22;;;;;;;3.80;3.33;;;20.10;21.90;;;;;;4980430;28;20452;-89
2021/05/03 11:28:50;;;;;;;3.33;2.93;;;20.30;19.70;;;;;;4979234;28;20475;-89
2021/05/03 11:31:19;;;;;;;3.23;2.80;;;20.00;19.40;;;;;;4978840;28;20515;-89
2021/05/03 11:33:52;;;;;;;4.83;3.13;;;19.90;20.60;;;;;;4980315;28;20475;-88
2021/05/03 11:36:23;;;;;;;3.77;2.73;;;20.10;18.90;;;;;;4979747;28;20949;-88
2021/05/03 11:38:59;;;;;;;3.57;2.90;;;20.00;20.20;;;;;;4979921;28;20475;-87
2021/05/03 11:41:39;;;;;;;4.80;3.00;;;20.00;20.40;;;;;;4980763;28;20460;-87
2021/05/03 11:44:21;;;;;;;3.13;2.93;;;19.90;21.50;;;;;;5000125;28;20440;-86
2021/05/03 11:46:48;;;;;;;5.50;3.37;;;19.40;20.00;;;;;;4980010;28;20862;-87
2021/05/03 11:49:17;;;;;;;3.33;2.90;;;18.40;20.10;;;;;;4977987;28;20451;-87
2021/05/03 11:51:48;;;;;;;7.33;3.27;;;18.20;21.90;;;;;;4990410;28;20455;-87
2021/05/03 11:54:26;;;;;;;3.27;2.93;;;19.00;20.10;;;;;;4998419;28;20490;-86
2021/05/03 11:57:00;;;;;;;3.20;3.00;;;19.30;23.60;;;;;;4981186;28;20440;-87
2021/05/03 11:59:28;;;;;;;3.33;3.00;;;19.60;19.60;;;;;;4979554;28;20416;-87
2021/05/03 12:01:59;;;;;;;3.23;2.80;;;19.40;20.10;;;;;;4978785;28;20526;-86
2021/05/03 12:04:35;;;;;;;3.70;3.00;;;19.40;19.80;;;;;;4978454;28;20452;-86
2021/05/03 12:07:14;;;;;;;4.33;3.10;;;19.60;20.80;;;;;;4978568;28;20526;-86
2021/05/03 12:09:42;;;;;;;4.10;3.10;;;19.50;20.50;;;;;;4977763;28;20452;-86
2021/05/03 12:12:08;;;;;;;3.40;2.93;;;19.50;21.30;;;;;;4980689;28;20476;-87
2021/05/03 12:14:43;;;;;;;4.50;2.97;;;19.40;21.30;;;;;;4988686;28;20452;-87
2021/05/03 12:17:24;;;;;;;3.00;2.80;;;19.20;20.30;;;;;;4988753;28;20440;-87
2021/05/03 12:19:52;;;;;;;6.77;4.70;;;19.10;19.30;;;;;;4980198;28;20416;-87
2021/05/03 12:22:20;;;;;;;7.93;4.60;;;19.20;20.10;;;;;;4979435;28;20475;-87
2021/05/03 12:24:47;;;;;;;3.77;3.17;;;19.20;22.30;;;;;;4978777;28;20542;-87
2021/05/03 12:27:15;;;;;;;3.90;3.40;;;19.50;20.30;;;;;;4989329;28;20484;-87
2021/05/03 12:29:45;;;;;;;4.80;2.70;;;19.80;20.30;;;;;;4977556;28;20969;-87
2021/05/03 12:32:16;;;;;;;4.23;3.10;;;19.90;21.40;;;;;;4978024;28;20448;-87
2021/05/03 12:34:48;;;;;;;5.10;3.37;;;20.10;21.20;;;;;;4977862;28;20447;-87
2021/05/03 12:37:20;;;;;;;5.27;2.70;;;19.80;22.10;;;;;;4978907;28;20439;-87
2021/05/03 12:40:03;;;;;;;4.93;3.17;;;19.30;21.40;;;;;;4979156;28;20428;-88
2021/05/03 12:42:35;;;;;;;4.10;3.10;;;18.70;22.10;;;;;;4980190;28;20545;-87
2021/05/03 12:45:17;;;;;;;4.63;3.00;;;18.40;20.70;;;;;;4981020;28;20451;-87
2021/05/03 12:47:57;;;;;;;3.10;2.70;;;18.20;22.20;;;;;;4977537;28;20521;-87
2021/05/03 12:50:28;;;;;;;9.30;3.53;;;18.30;21.50;;;;;;4977381;28;20424;-88
2021/05/03 12:53:10;;;;;;;4.00;2.97;;;18.50;23.20;;;;;;4977023;28;20510;-88
2021/05/03 12:55:55;;;;;;;4.50;2.90;;;18.80;21.20;;;;;;4976546;28;20439;-88
2021/05/03 12:58:27;;;;;;;5.60;3.00;;;18.70;19.50;;;;;;4976869;28;20428;-87
2021/05/03 13:01:09;;;;;;;3.97;2.93;;;18.60;20.20;;;;;;4976871;28;20432;-87
2021/05/03 13:03:46;;;;;;;2.70;2.50;;;19.30;21.20;;;;;;4976775;28;20480;-87
2021/05/03 13:09:07;;;;;;;4.93;2.77;;;18.90;21.00;;;;;;4974156;28;20977;-87